Terminal Aerodrome Forecast
Issued by NWS

Home | Current Version | Previous Version | Text Only | Print | Product List | Glossary On
Versions: 1 2 3 4 5 6 7 8 9 10 11 12 13 14 15 16 17 18 19 20 21 22 23 24 25 26 27 28 29 30 31 32
468
FTUS42 KGSP 201130
TAFHKY
TAF
KHKY 201130Z 2012/2112 03003KT 5SM -SHRA BR OVC015 WS020/20035KT
      TEMPO 2012/2014 2SM SHRA BR OVC008
     FM201400 VRB02KT 5SM BR VCSH OVC007
     FM201700 VRB02KT P6SM BKN008
     FM202200 20003KT P6SM BKN020
     FM210100 VRB02KT 5SM BR BKN015
     FM210500 VRB02KT 1SM BR BKN007=

USA.gov is the U.S. government's official web portal to all federal, state and local government web resources and services.